sensor_id;sensor_type;location;lat;lon;timestamp;pressure;altitude;pressure_sealevel;temperature;humidity
43878;BME280;29815;48.184;11.268;2024-01-27T00:00:16;97141.63;;;0.28;100.00
43878;BME280;29815;48.184;11.268;2024-01-27T00:03:04;97145.41;;;0.33;100.00
43878;BME280;29815;48.184;11.268;2024-01-27T00:05:34;97146.91;;;0.36;100.00
43878;BME280;29815;48.184;11.268;2024-01-27T00:08:22;97153.03;;;0.37;100.00
43878;BME280;29815;48.184;11.268;2024-01-27T00:11:12;97151.72;;;0.41;100.00
43878;BME280;29815;48.184;11.268;2024-01-27T00:13:41;97145.09;;;0.45;100.00
43878;BME280;29815;48.184;11.268;2024-01-27T00:16:29;97145.59;;;0.48;100.00
43878;BME280;29815;48.184;11.268;2024-01-27T00:18:58;97140.47;;;0.47;100.00
43878;BME280;29815;48.184;11.268;2024-01-27T00:21:46;97138.63;;;0.47;100.00
43878;BME280;29815;48.184;11.268;2024-01-27T00:24:15;97133.84;;;0.43;100.00
43878;BME280;29815;48.184;11.268;2024-01-27T00:26:46;97142.44;;;0.37;100.00
43878;BME280;29815;48.184;11.268;2024-01-27T00:29:34;97147.72;;;0.28;100.00
43878;BME280;29815;48.184;11.268;2024-01-27T00:32:22;97152.72;;;0.23;100.00
43878;BME280;29815;48.184;11.268;2024-01-27T00:34:51;97158.84;;;0.16;100.00
43878;BME280;29815;48.184;11.268;2024-01-27T00:37:20;97157.69;;;0.10;100.00
43878;BME280;29815;48.184;11.268;2024-01-27T00:39:50;97162.16;;;0.10;100.00
43878;BME280;29815;48.184;11.268;2024-01-27T00:42:40;97161.97;;;0.03;100.00
43878;BME280;29815;48.184;11.268;2024-01-27T00:45:09;97154.72;;;-0.03;100.00
43878;BME280;29815;48.184;11.268;2024-01-27T00:47:57;97158.84;;;-0.09;100.00
43878;BME280;29815;48.184;11.268;2024-01-27T00:50:27;97153.19;;;-0.14;100.00
43878;BME280;29815;48.184;11.268;2024-01-27T00:53:15;97153.34;;;-0.23;100.00
43878;BME280;29815;48.184;11.268;2024-01-27T00:55:44;97149.72;;;-0.30;100.00
43878;BME280;29815;48.184;11.268;2024-01-27T00:58:14;97154.66;;;-0.36;100.00
43878;BME280;29815;48.184;11.268;2024-01-27T01:00:44;97150.84;;;-0.41;100.00
43878;BME280;29815;48.184;11.268;2024-01-27T01:03:13;97150.34;;;-0.45;100.00
43878;BME280;29815;48.184;11.268;2024-01-27T01:05:42;97145.19;;;-0.46;100.00
43878;BME280;29815;48.184;11.268;2024-01-27T01:08:31;97141.72;;;-0.47;100.00
43878;BME280;29815;48.184;11.268;2024-01-27T01:11:00;97139.91;;;-0.46;100.00
43878;BME280;29815;48.184;11.268;2024-01-27T01:13:31;97140.22;;;-0.49;100.00
43878;BME280;29815;48.184;11.268;2024-01-27T01:16:00;97144.84;;;-0.51;100.00
43878;BME280;29815;48.184;11.268;2024-01-27T01:18:31;97145.00;;;-0.53;100.00
43878;BME280;29815;48.184;11.268;2024-01-27T01:21:19;97140.06;;;-0.56;100.00
43878;BME280;29815;48.184;11.268;2024-01-27T01:23:48;97137.44;;;-0.56;100.00
43878;BME280;29815;48.184;11.268;2024-01-27T01:26:18;97146.34;;;-0.57;100.00
43878;BME280;29815;48.184;11.268;2024-01-27T01:29:07;97160.06;;;-0.61;100.00
43878;BME280;29815;48.184;11.268;2024-01-27T01:31:36;97158.56;;;-0.64;100.00
43878;BME280;29815;48.184;11.268;2024-01-27T01:34:05;97163.16;;;-0.66;100.00
43878;BME280;29815;48.184;11.268;2024-01-27T01:36:35;97164.84;;;-0.65;100.00
43878;BME280;29815;48.184;11.268;2024-01-27T01:39:06;97165.31;;;-0.70;100.00
43878;BME280;29815;48.184;11.268;2024-01-27T01:41:36;97175.22;;;-0.72;100.00
43878;BME280;29815;48.184;11.268;2024-01-27T01:44:07;97184.38;;;-0.58;100.00
43878;BME280;29815;48.184;11.268;2024-01-27T01:46:55;97183.25;;;-0.39;100.00
43878;BME280;29815;48.184;11.268;2024-01-27T01:49:24;97190.06;;;-0.28;100.00
43878;BME280;29815;48.184;11.268;2024-01-27T01:51:54;97189.06;;;-0.27;100.00
43878;BME280;29815;48.184;11.268;2024-01-27T01:54:23;97181.47;;;-0.30;100.00
43878;BME280;29815;48.184;11.268;2024-01-27T01:57:14;97182.28;;;-0.30;100.00
43878;BME280;29815;48.184;11.268;2024-01-27T01:59:45;97186.59;;;-0.29;100.00
43878;BME280;29815;48.184;11.268;2024-01-27T02:02:15;97184.25;;;-0.24;100.00
43878;BME280;29815;48.184;11.268;2024-01-27T02:05:04;97177.31;;;-0.25;100.00
43878;BME280;29815;48.184;11.268;2024-01-27T02:07:33;97184.94;;;-0.30;100.00
43878;BME280;29815;48.184;11.268;2024-01-27T02:10:03;97192.03;;;-0.30;100.00
43878;BME280;29815;48.184;11.268;2024-01-27T02:12:33;97191.88;;;-0.29;100.00
43878;BME280;29815;48.184;11.268;2024-01-27T02:15:04;97187.22;;;-0.27;100.00
43878;BME280;29815;48.184;11.268;2024-01-27T02:17:52;97187.06;;;-0.25;100.00
43878;BME280;29815;48.184;11.268;2024-01-27T02:20:22;97192.22;;;-0.32;100.00
43878;BME280;29815;48.184;11.268;2024-01-27T02:23:10;97193.66;;;-0.38;100.00
43878;BME280;29815;48.184;11.268;2024-01-27T02:25:59;97206.22;;;-0.40;100.00
43878;BME280;29815;48.184;11.268;2024-01-27T02:28:28;97198.97;;;-0.38;100.00
43878;BME280;29815;48.184;11.268;2024-01-27T02:31:18;97208.03;;;-0.40;100.00
43878;BME280;29815;48.184;11.268;2024-01-27T02:33:47;97210.84;;;-0.42;100.00
43878;BME280;29815;48.184;11.268;2024-01-27T02:36:35;97216.28;;;-0.43;100.00
43878;BME280;29815;48.184;11.268;2024-01-27T02:39:04;97219.25;;;-0.46;100.00
43878;BME280;29815;48.184;11.268;2024-01-27T02:41:54;97223.41;;;-0.44;100.00
43878;BME280;29815;48.184;11.268;2024-01-27T02:44:41;97217.44;;;-0.46;100.00
43878;BME280;29815;48.184;11.268;2024-01-27T02:47:10;97223.56;;;-0.45;100.00
43878;BME280;29815;48.184;11.268;2024-01-27T02:49:40;97222.78;;;-0.38;100.00
43878;BME280;29815;48.184;11.268;2024-01-27T02:52:28;97221.63;;;-0.35;100.00
43878;BME280;29815;48.184;11.268;2024-01-27T02:55:16;97229.09;;;-0.30;100.00
43878;BME280;29815;48.184;11.268;2024-01-27T02:58:06;97228.56;;;-0.26;100.00
43878;BME280;29815;48.184;11.268;2024-01-27T03:00:35;97218.81;;;-0.25;100.00
43878;BME280;29815;48.184;11.268;2024-01-27T03:03:04;97225.75;;;-0.24;100.00
43878;BME280;29815;48.184;11.268;2024-01-27T03:05:53;97220.63;;;-0.26;100.00
43878;BME280;29815;48.184;11.268;2024-01-27T03:08:22;97217.34;;;-0.28;100.00
43878;BME280;29815;48.184;11.268;2024-01-27T03:10:52;97237.00;;;-0.30;100.00
43878;BME280;29815;48.184;11.268;2024-01-27T03:13:41;97231.72;;;-0.30;100.00
43878;BME280;29815;48.184;11.268;2024-01-27T03:16:31;97231.41;;;-0.27;100.00
43878;BME280;29815;48.184;11.268;2024-01-27T03:19:01;97228.91;;;-0.29;100.00
43878;BME280;29815;48.184;11.268;2024-01-27T03:21:30;97234.84;;;-0.35;100.00
43878;BME280;29815;48.184;11.268;2024-01-27T03:24:00;97238.31;;;-0.35;100.00
43878;BME280;29815;48.184;11.268;2024-01-27T03:26:29;97243.41;;;-0.41;100.00
43878;BME280;29815;48.184;11.268;2024-01-27T03:29:00;97240.28;;;-0.37;100.00
43878;BME280;29815;48.184;11.268;2024-01-27T03:31:47;97241.75;;;-0.42;100.00
43878;BME280;29815;48.184;11.268;2024-01-27T03:34:17;97243.38;;;-0.49;100.00
43878;BME280;29815;48.184;11.268;2024-01-27T03:37:06;97249.63;;;-0.58;100.00
43878;BME280;29815;48.184;11.268;2024-01-27T03:39:35;97254.25;;;-0.60;100.00
43878;BME280;29815;48.184;11.268;2024-01-27T03:42:05;97260.69;;;-0.63;100.00
43878;BME280;29815;48.184;11.268;2024-01-27T03:44:35;97255.03;;;-0.68;100.00
43878;BME280;29815;48.184;11.268;2024-01-27T03:47:05;97270.59;;;-0.65;100.00
43878;BME280;29815;48.184;11.268;2024-01-27T03:49:34;97262.28;;;-0.70;100.00
43878;BME280;29815;48.184;11.268;2024-01-27T03:52:04;97277.31;;;-0.71;100.00
43878;BME280;29815;48.184;11.268;2024-01-27T03:54:33;97275.66;;;-0.72;100.00
43878;BME280;29815;48.184;11.268;2024-01-27T03:57:21;97264.44;;;-0.74;100.00
43878;BME280;29815;48.184;11.268;2024-01-27T03:59:52;97261.56;;;-0.80;100.00
43878;BME280;29815;48.184;11.268;2024-01-27T04:02:39;97260.09;;;-0.83;100.00
43878;BME280;29815;48.184;11.268;2024-01-27T04:05:09;97257.91;;;-0.87;100.00
43878;BME280;29815;48.184;11.268;2024-01-27T04:07:56;97260.88;;;-0.90;100.00
43878;BME280;29815;48.184;11.268;2024-01-27T04:10:26;97261.84;;;-0.91;100.00
43878;BME280;29815;48.184;11.268;2024-01-27T04:12:55;97265.34;;;-0.91;100.00
43878;BME280;29815;48.184;11.268;2024-01-27T04:15:26;97265.19;;;-0.89;100.00
43878;BME280;29815;48.184;11.268;2024-01-27T04:17:55;97269.94;;;-0.93;100.00
43878;BME280;29815;48.184;11.268;2024-01-27T04:20:25;97267.81;;;-0.89;100.00
43878;BME280;29815;48.184;11.268;2024-01-27T04:23:12;97275.44;;;-0.86;100.00
43878;BME280;29815;48.184;11.268;2024-01-27T04:26:00;97277.09;;;-0.85;100.00
43878;BME280;29815;48.184;11.268;2024-01-27T04:28:48;97270.81;;;-0.84;100.00
43878;BME280;29815;48.184;11.268;2024-01-27T04:31:19;97277.09;;;-0.85;100.00
43878;BME280;29815;48.184;11.268;2024-01-27T04:33:48;97276.72;;;-0.90;100.00
43878;BME280;29815;48.184;11.268;2024-01-27T04:36:36;97273.41;;;-0.92;100.00
43878;BME280;29815;48.184;11.268;2024-01-27T04:39:06;97272.38;;;-0.99;100.00
43878;BME280;29815;48.184;11.268;2024-01-27T04:41:53;97276.59;;;-1.07;100.00
43878;BME280;29815;48.184;11.268;2024-01-27T04:44:22;97270.34;;;-1.06;100.00
43878;BME280;29815;48.184;11.268;2024-01-27T04:46:53;97275.47;;;-1.04;100.00
43878;BME280;29815;48.184;11.268;2024-01-27T04:49:40;97273.34;;;-1.00;100.00
43878;BME280;29815;48.184;11.268;2024-01-27T04:52:10;97277.97;;;-1.03;100.00
43878;BME280;29815;48.184;11.268;2024-01-27T04:54:39;97286.19;;;-1.06;100.00
43878;BME280;29815;48.184;11.268;2024-01-27T04:57:08;97281.56;;;-1.12;100.00
43878;BME280;29815;48.184;11.268;2024-01-27T04:59:56;97288.28;;;-1.17;100.00
43878;BME280;29815;48.184;11.268;2024-01-27T05:02:27;97283.97;;;-1.18;100.00
43878;BME280;29815;48.184;11.268;2024-01-27T05:05:15;97281.34;;;-1.18;100.00
43878;BME280;29815;48.184;11.268;2024-01-27T05:08:03;97288.97;;;-1.33;100.00
43878;BME280;29815;48.184;11.268;2024-01-27T05:10:51;97290.09;;;-1.36;100.00
43878;BME280;29815;48.184;11.268;2024-01-27T05:13:25;97300.84;;;-1.37;100.00
43878;BME280;29815;48.184;11.268;2024-01-27T05:16:12;97299.19;;;-1.38;100.00
43878;BME280;29815;48.184;11.268;2024-01-27T05:18:43;97299.38;;;-1.31;100.00
43878;BME280;29815;48.184;11.268;2024-01-27T05:21:31;97297.41;;;-1.29;100.00
43878;BME280;29815;48.184;11.268;2024-01-27T05:24:19;97301.88;;;-1.30;100.00
43878;BME280;29815;48.184;11.268;2024-01-27T05:26:48;97299.06;;;-1.28;100.00
43878;BME280;29815;48.184;11.268;2024-01-27T05:29:36;97297.13;;;-1.26;100.00
43878;BME280;29815;48.184;11.268;2024-01-27T05:32:06;97304.88;;;-1.25;100.00
43878;BME280;29815;48.184;11.268;2024-01-27T05:34:37;97308.06;;;-1.21;100.00
43878;BME280;29815;48.184;11.268;2024-01-27T05:37:06;97308.50;;;-1.26;100.00
43878;BME280;29815;48.184;11.268;2024-01-27T05:39:36;97313.25;;;-1.29;100.00
43878;BME280;29815;48.184;11.268;2024-01-27T05:42:05;97315.53;;;-1.34;100.00
43878;BME280;29815;48.184;11.268;2024-01-27T05:44:34;97322.13;;;-1.39;100.00
43878;BME280;29815;48.184;11.268;2024-01-27T05:47:03;97319.94;;;-1.43;100.00
43878;BME280;29815;48.184;11.268;2024-01-27T05:49:38;97324.84;;;-1.48;100.00
43878;BME280;29815;48.184;11.268;2024-01-27T05:52:26;97333.34;;;-1.54;100.00
43878;BME280;29815;48.184;11.268;2024-01-27T05:55:14;97345.19;;;-1.58;100.00
43878;BME280;29815;48.184;11.268;2024-01-27T05:57:44;97341.88;;;-1.60;100.00
43878;BME280;29815;48.184;11.268;2024-01-27T06:00:32;97343.81;;;-1.62;100.00
43878;BME280;29815;48.184;11.268;2024-01-27T06:03:20;97348.28;;;-1.63;100.00
43878;BME280;29815;48.184;11.268;2024-01-27T06:05:51;97342.34;;;-1.65;100.00
43878;BME280;29815;48.184;11.268;2024-01-27T06:08:38;97355.00;;;-1.68;100.00
43878;BME280;29815;48.184;11.268;2024-01-27T06:11:27;97358.91;;;-1.73;100.00
43878;BME280;29815;48.184;11.268;2024-01-27T06:13:56;97362.00;;;-1.77;100.00
43878;BME280;29815;48.184;11.268;2024-01-27T06:16:26;97375.50;;;-1.80;100.00
43878;BME280;29815;48.184;11.268;2024-01-27T06:18:55;97374.94;;;-1.84;100.00
43878;BME280;29815;48.184;11.268;2024-01-27T06:21:44;97366.63;;;-1.89;100.00
43878;BME280;29815;48.184;11.268;2024-01-27T06:24:14;97362.81;;;-1.94;100.00
43878;BME280;29815;48.184;11.268;2024-01-27T06:27:02;97365.75;;;-1.97;100.00
43878;BME280;29815;48.184;11.268;2024-01-27T06:29:31;97369.22;;;-1.97;100.00
43878;BME280;29815;48.184;11.268;2024-01-27T06:32:19;97371.00;;;-1.97;100.00
43878;BME280;29815;48.184;11.268;2024-01-27T06:34:48;97371.00;;;-1.97;100.00
43878;BME280;29815;48.184;11.268;2024-01-27T06:37:19;97377.41;;;-2.00;100.00
43878;BME280;29815;48.184;11.268;2024-01-27T06:39:50;97385.47;;;-2.01;100.00
43878;BME280;29815;48.184;11.268;2024-01-27T06:42:19;97384.66;;;-2.02;100.00
43878;BME280;29815;48.184;11.268;2024-01-27T06:45:08;97385.91;;;-2.06;100.00
43878;BME280;29815;48.184;11.268;2024-01-27T06:47:37;97383.16;;;-2.14;100.00
43878;BME280;29815;48.184;11.268;2024-01-27T06:50:07;97374.03;;;-2.20;100.00
43878;BME280;29815;48.184;11.268;2024-01-27T06:52:38;97380.28;;;-2.21;100.00
43878;BME280;29815;48.184;11.268;2024-01-27T06:55:08;97383.06;;;-2.22;100.00
43878;BME280;29815;48.184;11.268;2024-01-27T06:57:38;97386.84;;;-2.25;100.00
43878;BME280;29815;48.184;11.268;2024-01-27T07:00:09;97393.78;;;-2.24;100.00
43878;BME280;29815;48.184;11.268;2024-01-27T07:02:42;97387.81;;;-2.26;100.00
43878;BME280;29815;48.184;11.268;2024-01-27T07:05:12;97388.94;;;-2.28;100.00
43878;BME280;29815;48.184;11.268;2024-01-27T07:08:03;97394.47;;;-2.31;100.00
43878;BME280;29815;48.184;11.268;2024-01-27T07:10:33;97392.97;;;-2.34;100.00
43878;BME280;29815;48.184;11.268;2024-01-27T07:13:03;97391.31;;;-2.35;100.00
43878;BME280;29815;48.184;11.268;2024-01-27T07:15:34;97394.78;;;-2.34;100.00
43878;BME280;29815;48.184;11.268;2024-01-27T07:18:05;97401.84;;;-2.35;100.00
43878;BME280;29815;48.184;11.268;2024-01-27T07:20:36;97401.03;;;-2.35;100.00
43878;BME280;29815;48.184;11.268;2024-01-27T07:23:06;97401.72;;;-2.33;100.00
43878;BME280;29815;48.184;11.268;2024-01-27T07:25:55;97402.53;;;-2.33;100.00
43878;BME280;29815;48.184;11.268;2024-01-27T07:28:43;97403.09;;;-2.29;100.00
43878;BME280;29815;48.184;11.268;2024-01-27T07:31:13;97395.19;;;-2.29;100.00
43878;BME280;29815;48.184;11.268;2024-01-27T07:33:42;97398.66;;;-2.29;100.00
43878;BME280;29815;48.184;11.268;2024-01-27T07:36:30;97398.50;;;-2.27;100.00
43878;BME280;29815;48.184;11.268;2024-01-27T07:39:20;97397.25;;;-2.23;100.00
43878;BME280;29815;48.184;11.268;2024-01-27T07:41:50;97395.28;;;-2.21;100.00
43878;BME280;29815;48.184;11.268;2024-01-27T07:44:37;97394.81;;;-2.17;100.00
43878;BME280;29815;48.184;11.268;2024-01-27T07:47:25;97390.09;;;-2.13;100.00
43878;BME280;29815;48.184;11.268;2024-01-27T07:50:13;97398.56;;;-2.10;100.00
43878;BME280;29815;48.184;11.268;2024-01-27T07:53:01;97392.56;;;-2.02;100.00
43878;BME280;29815;48.184;11.268;2024-01-27T07:55:31;97397.25;;;-1.96;100.00
43878;BME280;29815;48.184;11.268;2024-01-27T07:58:01;97397.31;;;-1.88;100.00
43878;BME280;29815;48.184;11.268;2024-01-27T08:00:30;97408.13;;;-1.81;100.00
43878;BME280;29815;48.184;11.268;2024-01-27T08:03:00;97395.03;;;-1.73;100.00
43878;BME280;29815;48.184;11.268;2024-01-27T08:05:48;97395.78;;;-1.63;100.00
43878;BME280;29815;48.184;11.268;2024-01-27T08:08:17;97397.09;;;-1.49;100.00
43878;BME280;29815;48.184;11.268;2024-01-27T08:11:06;97395.59;;;-1.34;100.00
43878;BME280;29815;48.184;11.268;2024-01-27T08:13:35;97386.84;;;-1.17;100.00
43878;BME280;29815;48.184;11.268;2024-01-27T08:16:05;97396.88;;;-1.03;100.00
43878;BME280;29815;48.184;11.268;2024-01-27T08:18:37;97390.53;;;-0.92;100.00
43878;BME280;29815;48.184;11.268;2024-01-27T08:21:06;97391.25;;;-0.82;100.00
43878;BME280;29815;48.184;11.268;2024-01-27T08:23:54;97395.16;;;-0.68;100.00
43878;BME280;29815;48.184;11.268;2024-01-27T08:26:25;97388.81;;;-0.57;100.00
43878;BME280;29815;48.184;11.268;2024-01-27T08:28:54;97394.50;;;-0.44;100.00
43878;BME280;29815;48.184;11.268;2024-01-27T08:31:26;97397.56;;;-0.31;100.00
43878;BME280;29815;48.184;11.268;2024-01-27T08:34:13;97399.75;;;-0.18;100.00
43878;BME280;29815;48.184;11.268;2024-01-27T08:37:02;97405.47;;;-0.05;100.00
43878;BME280;29815;48.184;11.268;2024-01-27T08:39:31;97402.22;;;0.09;100.00
43878;BME280;29815;48.184;11.268;2024-01-27T08:42:02;97413.84;;;0.16;100.00
43878;BME280;29815;48.184;11.268;2024-01-27T08:44:50;97424.63;;;0.23;100.00
43878;BME280;29815;48.184;11.268;2024-01-27T08:47:38;97433.25;;;0.25;100.00
43878;BME280;29815;48.184;11.268;2024-01-27T08:50:25;97428.63;;;0.27;100.00
43878;BME280;29815;48.184;11.268;2024-01-27T08:53:13;97426.28;;;0.32;100.00
43878;BME280;29815;48.184;11.268;2024-01-27T08:56:01;97423.00;;;0.38;100.00
43878;BME280;29815;48.184;11.268;2024-01-27T08:58:32;97422.22;;;0.46;100.00
43878;BME280;29815;48.184;11.268;2024-01-27T09:01:01;97424.06;;;0.61;100.00
43878;BME280;29815;48.184;11.268;2024-01-27T09:03:33;97424.28;;;0.76;100.00
43878;BME280;29815;48.184;11.268;2024-01-27T09:06:21;97435.56;;;0.94;100.00
43878;BME280;29815;48.184;11.268;2024-01-27T09:08:51;97431.78;;;1.13;100.00
43878;BME280;29815;48.184;11.268;2024-01-27T09:11:20;97434.94;;;1.25;100.00
43878;BME280;29815;48.184;11.268;2024-01-27T09:13:52;97437.28;;;1.36;100.00
43878;BME280;29815;48.184;11.268;2024-01-27T09:16:22;97451.69;;;1.50;100.00
43878;BME280;29815;48.184;11.268;2024-01-27T09:18:51;97444.06;;;1.63;100.00
43878;BME280;29815;48.184;11.268;2024-01-27T09:21:21;97442.53;;;1.77;100.00
43878;BME280;29815;48.184;11.268;2024-01-27T09:23:56;97440.53;;;1.87;100.00
43878;BME280;29815;48.184;11.268;2024-01-27T09:26:44;97438.00;;;1.93;100.00
43878;BME280;29815;48.184;11.268;2024-01-27T09:29:14;97432.69;;;2.01;100.00
43878;BME280;29815;48.184;11.268;2024-01-27T09:32:02;97437.81;;;2.11;100.00
43878;BME280;29815;48.184;11.268;2024-01-27T09:34:50;97437.16;;;2.17;100.00
43878;BME280;29815;48.184;11.268;2024-01-27T09:37:21;97430.63;;;2.28;100.00
43878;BME280;29815;48.184;11.268;2024-01-27T09:39:55;97427.59;;;2.39;100.00
43878;BME280;29815;48.184;11.268;2024-01-27T09:42:24;97442.38;;;2.42;100.00
43878;BME280;29815;48.184;11.268;2024-01-27T09:45:14;97446.13;;;2.47;100.00
43878;BME280;29815;48.184;11.268;2024-01-27T09:48:03;97437.31;;;2.55;100.00
43878;BME280;29815;48.184;11.268;2024-01-27T09:50:35;97435.63;;;2.62;100.00
43878;BME280;29815;48.184;11.268;2024-01-27T09:53:04;97441.34;;;2.73;100.00
43878;BME280;29815;48.184;11.268;2024-01-27T09:55:55;97436.84;;;2.82;100.00
43878;BME280;29815;48.184;11.268;2024-01-27T09:58:45;97438.63;;;2.90;100.00
43878;BME280;29815;48.184;11.268;2024-01-27T10:01:35;97438.41;;;2.99;100.00
43878;BME280;29815;48.184;11.268;2024-01-27T10:04:04;97444.34;;;3.01;100.00
43878;BME280;29815;48.184;11.268;2024-01-27T10:06:34;97448.16;;;3.07;100.00
43878;BME280;29815;48.184;11.268;2024-01-27T10:09:22;97448.50;;;3.04;100.00
43878;BME280;29815;48.184;11.268;2024-01-27T10:11:52;97441.00;;;3.08;100.00
43878;BME280;29815;48.184;11.268;2024-01-27T10:14:23;97446.97;;;3.10;100.00
43878;BME280;29815;48.184;11.268;2024-01-27T10:16:53;97439.28;;;3.15;100.00
43878;BME280;29815;48.184;11.268;2024-01-27T10:19:22;97436.75;;;3.21;100.00
43878;BME280;29815;48.184;11.268;2024-01-27T10:22:10;97437.50;;;3.07;100.00
43878;BME280;29815;48.184;11.268;2024-01-27T10:24:40;97443.72;;;2.99;100.00
43878;BME280;29815;48.184;11.268;2024-01-27T10:27:09;97446.56;;;2.98;100.00
43878;BME280;29815;48.184;11.268;2024-01-27T10:29:39;97435.53;;;3.01;100.00
43878;BME280;29815;48.184;11.268;2024-01-27T10:32:09;97439.69;;;3.03;100.00
43878;BME280;29815;48.184;11.268;2024-01-27T10:34:39;97438.16;;;3.09;100.00
43878;BME280;29815;48.184;11.268;2024-01-27T10:37:27;97440.66;;;3.11;100.00
43878;BME280;29815;48.184;11.268;2024-01-27T10:40:00;97439.47;;;3.13;100.00
43878;BME280;29815;48.184;11.268;2024-01-27T10:42:31;97436.97;;;3.12;100.00
43878;BME280;29815;48.184;11.268;2024-01-27T10:45:19;97421.84;;;3.12;100.00
43878;BME280;29815;48.184;11.268;2024-01-27T10:47:50;97428.00;;;3.13;100.00
43878;BME280;29815;48.184;11.268;2024-01-27T10:50:20;97431.50;;;3.13;100.00
43878;BME280;29815;48.184;11.268;2024-01-27T10:52:50;97426.63;;;3.17;100.00
43878;BME280;29815;48.184;11.268;2024-01-27T10:55:20;97418.13;;;3.21;100.00
43878;BME280;29815;48.184;11.268;2024-01-27T10:58:09;97419.25;;;3.27;100.00
43878;BME280;29815;48.184;11.268;2024-01-27T11:00:39;97427.16;;;3.35;100.00
43878;BME280;29815;48.184;11.268;2024-01-27T11:03:12;97429.88;;;3.50;100.00
43878;BME280;29815;48.184;11.268;2024-01-27T11:06:00;97435.94;;;3.58;100.00
43878;BME280;29815;48.184;11.268;2024-01-27T11:08:30;97424.28;;;3.59;100.00
43878;BME280;29815;48.184;11.268;2024-01-27T11:11:17;97427.59;;;3.61;100.00
43878;BME280;29815;48.184;11.268;2024-01-27T11:13:47;97429.25;;;3.62;100.00
43878;BME280;29815;48.184;11.268;2024-01-27T11:16:18;97421.84;;;3.72;100.00
43878;BME280;29815;48.184;11.268;2024-01-27T11:18:49;97417.81;;;3.77;100.00
43878;BME280;29815;48.184;11.268;2024-01-27T11:21:38;97415.63;;;3.80;100.00
43878;BME280;29815;48.184;11.268;2024-01-27T11:24:26;97411.59;;;3.99;100.00
43878;BME280;29815;48.184;11.268;2024-01-27T11:27:02;97414.44;;;3.97;100.00
43878;BME280;29815;48.184;11.268;2024-01-27T11:29:51;97415.72;;;4.01;100.00
43878;BME280;29815;48.184;11.268;2024-01-27T11:32:20;97400.75;;;4.00;100.00
43878;BME280;29815;48.184;11.268;2024-01-27T11:35:10;97396.25;;;4.16;100.00
43878;BME280;29815;48.184;11.268;2024-01-27T11:37:39;97385.41;;;4.17;100.00
43878;BME280;29815;48.184;11.268;2024-01-27T11:40:13;97380.34;;;4.22;100.00
43878;BME280;29815;48.184;11.268;2024-01-27T11:42:43;97382.38;;;4.20;100.00
43878;BME280;29815;48.184;11.268;2024-01-27T11:45:31;97382.19;;;4.22;100.00
43878;BME280;29815;48.184;11.268;2024-01-27T11:48:00;97386.50;;;4.23;100.00
43878;BME280;29815;48.184;11.268;2024-01-27T11:50:31;97383.28;;;4.27;100.00
43878;BME280;29815;48.184;11.268;2024-01-27T11:53:00;97381.97;;;4.38;100.00
43878;BME280;29815;48.184;11.268;2024-01-27T11:55:30;97387.38;;;4.59;100.00
43878;BME280;29815;48.184;11.268;2024-01-27T11:57:59;97388.84;;;4.62;100.00
43878;BME280;29815;48.184;11.268;2024-01-27T12:00:47;97386.41;;;4.82;100.00
43878;BME280;29815;48.184;11.268;2024-01-27T12:03:16;97388.19;;;4.96;100.00
43878;BME280;29815;48.184;11.268;2024-01-27T12:06:06;97379.59;;;5.00;100.00
43878;BME280;29815;48.184;11.268;2024-01-27T12:08:59;97381.81;;;4.97;100.00
43878;BME280;29815;48.184;11.268;2024-01-27T12:11:46;97376.03;;;4.93;100.00
43878;BME280;29815;48.184;11.268;2024-01-27T12:14:38;97375.94;;;5.01;100.00
43878;BME280;29815;48.184;11.268;2024-01-27T12:17:09;97382.09;;;5.02;100.00
43878;BME280;29815;48.184;11.268;2024-01-27T12:19:39;97381.91;;;5.03;100.00
43878;BME280;29815;48.184;11.268;2024-01-27T12:22:25;97383.38;;;5.06;100.00
43878;BME280;29815;48.184;11.268;2024-01-27T12:25:14;97377.19;;;5.05;100.00
43878;BME280;29815;48.184;11.268;2024-01-27T12:27:45;97369.13;;;4.99;100.00
43878;BME280;29815;48.184;11.268;2024-01-27T12:30:33;97370.13;;;4.98;100.00
43878;BME280;29815;48.184;11.268;2024-01-27T12:33:21;97368.47;;;4.97;100.00
43878;BME280;29815;48.184;11.268;2024-01-27T12:35:53;97368.88;;;4.94;100.00
43878;BME280;29815;48.184;11.268;2024-01-27T12:38:43;97360.03;;;4.93;100.00
43878;BME280;29815;48.184;11.268;2024-01-27T12:41:16;97361.25;;;4.91;100.00
43878;BME280;29815;48.184;11.268;2024-01-27T12:43:45;97356.50;;;5.07;100.00
43878;BME280;29815;48.184;11.268;2024-01-27T12:46:14;97368.34;;;5.26;100.00
43878;BME280;29815;48.184;11.268;2024-01-27T12:49:03;97358.03;;;5.17;100.00
43878;BME280;29815;48.184;11.268;2024-01-27T12:51:33;97355.66;;;5.28;100.00
43878;BME280;29815;48.184;11.268;2024-01-27T12:54:04;97356.53;;;5.35;100.00
43878;BME280;29815;48.184;11.268;2024-01-27T12:56:52;97360.03;;;5.36;100.00
43878;BME280;29815;48.184;11.268;2024-01-27T12:59:41;97356.91;;;5.32;100.00
43878;BME280;29815;48.184;11.268;2024-01-27T13:02:29;97352.16;;;5.28;100.00
43878;BME280;29815;48.184;11.268;2024-01-27T13:05:17;97337.34;;;5.25;100.00
43878;BME280;29815;48.184;11.268;2024-01-27T13:07:46;97332.44;;;5.29;100.00
43878;BME280;29815;48.184;11.268;2024-01-27T13:10:18;97335.13;;;5.29;100.00
43878;BME280;29815;48.184;11.268;2024-01-27T13:12:47;97340.66;;;5.27;100.00
43878;BME280;29815;48.184;11.268;2024-01-27T13:15:35;97348.47;;;5.29;100.00
43878;BME280;29815;48.184;11.268;2024-01-27T13:18:04;97336.81;;;5.36;100.00
43878;BME280;29815;48.184;11.268;2024-01-27T13:20:53;97334.84;;;5.45;100.00
43878;BME280;29815;48.184;11.268;2024-01-27T13:23:41;97331.81;;;5.55;100.00
43878;BME280;29815;48.184;11.268;2024-01-27T13:26:11;97319.53;;;5.60;100.00
43878;BME280;29815;48.184;11.268;2024-01-27T13:28:46;97320.47;;;5.74;100.00
43878;BME280;29815;48.184;11.268;2024-01-27T13:31:17;97319.22;;;5.76;100.00
43878;BME280;29815;48.184;11.268;2024-01-27T13:33:47;97322.97;;;5.82;100.00